Time;durP1;ratioP1;P1;durP2;ratioP2;P2;SDS_P1;SDS_P2;PMS_P1;PMS_P2;Temp;Humidity;BMP_temperature;BMP_pressure;BME280_temperature;BME280_humidity;BME280_pressure;Samples;Min_cycle;Max_cycle;Signal;HPM_P1;HPM_P2
2023/09/23 00:00:12;;;;;;;2.23;1.00;;;;;;;;;;5050960;28;21019;-55
2023/09/23 00:02:40;;;;;;;1.57;0.70;;;;;;;;;;5051064;28;20473;-53
2023/09/23 00:05:09;;;;;;;2.00;1.17;;;;;;;;;;5051027;28;20441;-54
2023/09/23 00:07:36;;;;;;;1.90;1.10;;;;;;;;;;5051053;28;20551;-54
2023/09/23 00:10:08;;;;;;;1.60;1.10;;;;;;;;;;5050505;28;20502;-54
2023/09/23 00:12:36;;;;;;;1.50;0.70;;;;;;;;;;5050725;28;20466;-54
2023/09/23 00:15:05;;;;;;;1.90;0.80;;;;;;;;;;5050538;28;21060;-55
2023/09/23 00:17:32;;;;;;;1.70;1.07;;;;;;;;;;5051012;28;20532;-54
2023/09/23 00:20:00;;;;;;;2.40;1.20;;;;;;;;;;5050877;28;20476;-54
2023/09/23 00:22:27;;;;;;;1.77;1.30;;;;;;;;;;5050951;28;20449;-55
2023/09/23 00:24:55;;;;;;;2.87;1.33;;;;;;;;;;5050448;28;20927;-55
2023/09/23 00:27:26;;;;;;;2.07;1.13;;;;;;;;;;5050646;28;20932;-55
2023/09/23 00:29:53;;;;;;;2.13;1.47;;;;;;;;;;5050156;28;20449;-56
2023/09/23 00:32:21;;;;;;;1.90;1.10;;;;;;;;;;5050579;28;20445;-54
2023/09/23 00:34:49;;;;;;;1.90;1.10;;;;;;;;;;5050851;28;20564;-53
2023/09/23 00:37:16;;;;;;;1.70;1.20;;;;;;;;;;5050520;28;20528;-54
2023/09/23 00:39:43;;;;;;;1.90;1.37;;;;;;;;;;5050405;28;20491;-54
2023/09/23 00:42:12;;;;;;;2.10;1.20;;;;;;;;;;5050083;28;20487;-54
2023/09/23 00:44:40;;;;;;;1.73;1.13;;;;;;;;;;5050582;28;20456;-54
2023/09/23 00:47:09;;;;;;;2.30;1.17;;;;;;;;;;5049735;28;20477;-56
2023/09/23 00:49:38;;;;;;;1.90;1.17;;;;;;;;;;5050094;28;20464;-54
2023/09/23 00:52:07;;;;;;;3.10;1.60;;;;;;;;;;5046349;28;20489;-55
2023/09/23 00:54:40;;;;;;;1.90;1.20;;;;;;;;;;5048722;28;21060;-56
2023/09/23 00:57:08;;;;;;;1.87;1.30;;;;;;;;;;5048547;28;20452;-54
2023/09/23 00:59:36;;;;;;;1.83;1.50;;;;;;;;;;5049306;28;20449;-55
2023/09/23 01:02:05;;;;;;;2.13;1.30;;;;;;;;;;5049637;28;20560;-54
2023/09/23 01:04:32;;;;;;;1.93;1.33;;;;;;;;;;5047662;28;20574;-55
2023/09/23 01:07:01;;;;;;;2.10;1.37;;;;;;;;;;5046207;28;20445;-54
2023/09/23 01:09:29;;;;;;;3.30;1.37;;;;;;;;;;5049799;28;20532;-54
2023/09/23 01:11:57;;;;;;;3.23;1.40;;;;;;;;;;5049247;28;20498;-53
2023/09/23 01:14:25;;;;;;;1.80;1.00;;;;;;;;;;5049121;28;20457;-54
2023/09/23 01:16:53;;;;;;;2.13;1.10;;;;;;;;;;5049380;28;20445;-54
2023/09/23 01:19:25;;;;;;;2.23;1.43;;;;;;;;;;5048805;28;20454;-54
2023/09/23 01:21:53;;;;;;;2.63;1.50;;;;;;;;;;5049109;28;20448;-55
2023/09/23 01:24:22;;;;;;;2.00;1.40;;;;;;;;;;5048626;28;20465;-54
2023/09/23 01:26:51;;;;;;;4.10;1.57;;;;;;;;;;5048491;28;20445;-57
2023/09/23 01:29:22;;;;;;;5.33;1.80;;;;;;;;;;5049361;28;20449;-54
2023/09/23 01:31:56;;;;;;;3.03;1.73;;;;;;;;;;5049401;28;20811;-57
2023/09/23 01:34:23;;;;;;;3.90;1.80;;;;;;;;;;5049256;28;20952;-54
2023/09/23 01:36:53;;;;;;;2.77;1.73;;;;;;;;;;5049655;28;20532;-55
2023/09/23 01:39:23;;;;;;;2.50;2.00;;;;;;;;;;5048944;28;20511;-54
2023/09/23 01:41:54;;;;;;;2.30;1.57;;;;;;;;;;5050523;28;20468;-54
2023/09/23 01:44:21;;;;;;;1.80;1.30;;;;;;;;;;5053461;28;20514;-54
2023/09/23 01:46:49;;;;;;;2.20;1.40;;;;;;;;;;5053146;28;20801;-54
2023/09/23 01:49:17;;;;;;;1.93;1.33;;;;;;;;;;5052278;28;20939;-54
2023/09/23 01:51:46;;;;;;;1.70;1.30;;;;;;;;;;5053204;28;20543;-54
2023/09/23 01:54:16;;;;;;;2.10;1.50;;;;;;;;;;5052610;28;20540;-54
2023/09/23 01:56:44;;;;;;;2.00;1.30;;;;;;;;;;5051747;28;20880;-53
2023/09/23 01:59:12;;;;;;;2.80;1.80;;;;;;;;;;5052820;28;20810;-55
2023/09/23 02:01:40;;;;;;;3.00;1.53;;;;;;;;;;5053106;28;20445;-54
2023/09/23 02:04:08;;;;;;;2.10;1.40;;;;;;;;;;5052752;28;20540;-54
2023/09/23 02:06:41;;;;;;;2.90;1.37;;;;;;;;;;5052633;28;20444;-56
2023/09/23 02:09:09;;;;;;;2.13;1.30;;;;;;;;;;5051652;28;20534;-54
2023/09/23 02:11:37;;;;;;;2.17;1.47;;;;;;;;;;5053145;28;20441;-54
2023/09/23 02:14:06;;;;;;;2.10;1.43;;;;;;;;;;5051146;28;20464;-55
2023/09/23 02:16:33;;;;;;;4.23;3.70;;;;;;;;;;5052541;28;20477;-54
2023/09/23 02:19:02;;;;;;;2.40;1.57;;;;;;;;;;5052029;28;20528;-54
2023/09/23 02:21:30;;;;;;;2.20;1.70;;;;;;;;;;5052440;28;20449;-54
2023/09/23 02:23:57;;;;;;;2.07;1.30;;;;;;;;;;5052288;28;20449;-55
2023/09/23 02:26:25;;;;;;;2.20;1.60;;;;;;;;;;5052490;28;20455;-54
2023/09/23 02:28:52;;;;;;;5.07;2.30;;;;;;;;;;5051178;28;20516;-54
2023/09/23 02:31:21;;;;;;;2.70;1.30;;;;;;;;;;5052042;28;21001;-54
2023/09/23 02:33:48;;;;;;;2.47;1.80;;;;;;;;;;5052276;28;20453;-54
2023/09/23 02:36:15;;;;;;;2.63;1.37;;;;;;;;;;5051665;28;20509;-54
2023/09/23 02:38:43;;;;;;;2.00;1.50;;;;;;;;;;5052352;28;20744;-54
2023/09/23 02:41:10;;;;;;;1.87;1.30;;;;;;;;;;5052808;28;20528;-54
2023/09/23 02:43:38;;;;;;;2.53;1.57;;;;;;;;;;5052574;28;20971;-55
2023/09/23 02:46:06;;;;;;;2.50;1.13;;;;;;;;;;5052458;28;20525;-54
2023/09/23 02:48:35;;;;;;;2.10;1.10;;;;;;;;;;5052289;28;20452;-54
2023/09/23 02:51:04;;;;;;;2.67;1.40;;;;;;;;;;5052633;28;20789;-54
2023/09/23 02:53:33;;;;;;;1.83;1.10;;;;;;;;;;5051743;28;20512;-54
2023/09/23 02:56:07;;;;;;;1.90;1.30;;;;;;;;;;5051808;28;20496;-54
2023/09/23 02:58:34;;;;;;;1.77;1.00;;;;;;;;;;5051636;28;20449;-55
2023/09/23 03:01:04;;;;;;;2.10;1.63;;;;;;;;;;5051800;28;20583;-54
2023/09/23 03:03:33;;;;;;;1.60;0.97;;;;;;;;;;5050721;28;20479;-53
2023/09/23 03:06:03;;;;;;;2.00;1.33;;;;;;;;;;5051486;28;20449;-54
2023/09/23 03:08:30;;;;;;;1.90;1.37;;;;;;;;;;5051888;28;20541;-54
2023/09/23 03:11:02;;;;;;;1.90;1.20;;;;;;;;;;5051430;28;20446;-54
2023/09/23 03:13:31;;;;;;;1.93;1.50;;;;;;;;;;5051487;28;20819;-54
2023/09/23 03:16:07;;;;;;;1.87;1.17;;;;;;;;;;5051411;28;20576;-54
2023/09/23 03:18:36;;;;;;;1.80;1.20;;;;;;;;;;5052128;28;20465;-55
2023/09/23 03:21:08;;;;;;;2.27;1.10;;;;;;;;;;5051555;28;20453;-54
2023/09/23 03:23:37;;;;;;;2.40;1.30;;;;;;;;;;5051915;28;20495;-54
2023/09/23 03:26:06;;;;;;;1.90;1.37;;;;;;;;;;5051081;28;20817;-53
2023/09/23 03:28:33;;;;;;;1.70;1.10;;;;;;;;;;5051231;28;20507;-55
2023/09/23 03:31:01;;;;;;;2.20;1.30;;;;;;;;;;5050587;28;20499;-53
2023/09/23 03:33:29;;;;;;;2.37;1.00;;;;;;;;;;5051494;28;20474;-54
2023/09/23 03:35:56;;;;;;;1.83;1.20;;;;;;;;;;5050941;28;20534;-57
2023/09/23 03:38:25;;;;;;;1.80;1.20;;;;;;;;;;5051092;28;20499;-55
2023/09/23 03:40:53;;;;;;;2.10;1.30;;;;;;;;;;5050600;28;20533;-54
2023/09/23 03:43:20;;;;;;;1.67;1.00;;;;;;;;;;5050757;28;20491;-54
2023/09/23 03:45:48;;;;;;;1.90;1.27;;;;;;;;;;5051149;28;20863;-54
2023/09/23 03:48:15;;;;;;;1.80;1.10;;;;;;;;;;5050110;28;20528;-55
2023/09/23 03:50:42;;;;;;;1.80;1.10;;;;;;;;;;5051328;28;20497;-54
2023/09/23 03:53:10;;;;;;;1.97;1.07;;;;;;;;;;5069039;22;20494;-84
2023/09/23 03:55:39;;;;;;;1.93;1.40;;;;;;;;;;5035021;28;20492;-84
2023/09/23 03:58:07;;;;;;;1.90;1.47;;;;;;;;;;5034787;28;20803;-84
2023/09/23 04:00:35;;;;;;;1.90;1.30;;;;;;;;;;5035776;28;20451;-83
2023/09/23 04:03:02;;;;;;;2.13;1.10;;;;;;;;;;5036070;28;20995;-84
2023/09/23 04:05:31;;;;;;;1.90;1.30;;;;;;;;;;5035824;28;20470;-84
2023/09/23 04:07:58;;;;;;;2.20;1.70;;;;;;;;;;5036072;28;20899;-83
2023/09/23 04:10:27;;;;;;;2.20;1.70;;;;;;;;;;5033329;28;21206;-83
2023/09/23 04:12:55;;;;;;;2.30;1.70;;;;;;;;;;5033794;28;20456;-83
2023/09/23 04:15:24;;;;;;;3.17;1.93;;;;;;;;;;5034512;28;20473;-83
2023/09/23 04:17:52;;;;;;;2.43;2.00;;;;;;;;;;5034990;28;20446;-83
2023/09/23 04:20:19;;;;;;;3.07;2.30;;;;;;;;;;5031731;28;20450;-83
2023/09/23 04:22:48;;;;;;;3.10;1.93;;;;;;;;;;5031091;28;20500;-83
2023/09/23 04:25:15;;;;;;;2.50;2.00;;;;;;;;;;5030230;28;20470;-82
2023/09/23 04:27:43;;;;;;;2.80;2.50;;;;;;;;;;5030994;28;20941;-83
2023/09/23 04:30:12;;;;;;;2.77;2.40;;;;;;;;;;5031786;28;20442;-83
2023/09/23 04:32:40;;;;;;;2.70;2.33;;;;;;;;;;5031846;28;20906;-82
2023/09/23 04:35:07;;;;;;;2.77;2.50;;;;;;;;;;5031878;28;20466;-82
2023/09/23 04:37:37;;;;;;;2.20;1.90;;;;;;;;;;5032712;28;21095;-83
2023/09/23 04:40:08;;;;;;;2.40;2.03;;;;;;;;;;5033099;28;20454;-83
2023/09/23 04:42:35;;;;;;;3.10;1.83;;;;;;;;;;5035398;28;20792;-83
2023/09/23 04:45:03;;;;;;;2.53;2.10;;;;;;;;;;5034192;28;20475;-83
2023/09/23 04:47:32;;;;;;;2.63;2.07;;;;;;;;;;5034565;28;20468;-83
2023/09/23 04:50:00;;;;;;;2.37;1.93;;;;;;;;;;5038541;28;20462;-84
2023/09/23 04:52:28;;;;;;;4.83;2.40;;;;;;;;;;5031978;28;20458;-83
2023/09/23 04:54:55;;;;;;;5.03;1.80;;;;;;;;;;5030878;28;20553;-83
2023/09/23 04:57:23;;;;;;;2.10;1.50;;;;;;;;;;5030829;28;20544;-83
2023/09/23 04:59:52;;;;;;;2.40;1.80;;;;;;;;;;5032024;28;20442;-83
2023/09/23 05:02:19;;;;;;;3.43;3.13;;;;;;;;;;5032212;28;20462;-84
2023/09/23 05:04:52;;;;;;;3.03;2.50;;;;;;;;;;5031656;28;20481;-84
2023/09/23 05:07:20;;;;;;;2.90;2.30;;;;;;;;;;5032408;28;20453;-84
2023/09/23 05:09:47;;;;;;;2.33;1.53;;;;;;;;;;5036091;28;20508;-84
2023/09/23 05:12:15;;;;;;;2.30;1.90;;;;;;;;;;5034967;28;20450;-84
2023/09/23 05:14:43;;;;;;;2.20;1.47;;;;;;;;;;5030991;28;20501;-84
2023/09/23 05:17:14;;;;;;;2.63;2.10;;;;;;;;;;5033850;28;20486;-85
2023/09/23 05:19:41;;;;;;;2.17;1.80;;;;;;;;;;5039179;28;20446;-84
2023/09/23 05:22:10;;;;;;;2.90;2.40;;;;;;;;;;5040248;28;20458;-84
2023/09/23 05:24:38;;;;;;;3.40;2.40;;;;;;;;;;5042478;28;20543;-84
2023/09/23 05:27:05;;;;;;;3.27;2.60;;;;;;;;;;5039369;28;20831;-83
2023/09/23 05:29:32;;;;;;;2.97;2.67;;;;;;;;;;5039102;28;20448;-83
2023/09/23 05:32:00;;;;;;;4.60;3.30;;;;;;;;;;5039419;28;20446;-83
2023/09/23 05:34:28;;;;;;;4.53;3.27;;;;;;;;;;5039354;28;20501;-83
2023/09/23 05:36:56;;;;;;;6.70;3.70;;;;;;;;;;5038808;28;20597;-84
2023/09/23 05:39:25;;;;;;;4.30;3.90;;;;;;;;;;5038569;28;20454;-84
2023/09/23 05:41:53;;;;;;;4.03;3.50;;;;;;;;;;5040187;28;20446;-84
2023/09/23 05:44:20;;;;;;;3.80;3.40;;;;;;;;;;5039893;28;20469;-83
2023/09/23 05:46:48;;;;;;;3.73;3.33;;;;;;;;;;5039422;28;20454;-84
2023/09/23 05:49:15;;;;;;;3.80;2.90;;;;;;;;;;5039853;28;20525;-84
2023/09/23 05:51:43;;;;;;;4.37;3.20;;;;;;;;;;5039990;28;21007;-83
2023/09/23 05:54:11;;;;;;;2.90;2.60;;;;;;;;;;5039698;28;20490;-83
2023/09/23 05:56:40;;;;;;;4.57;2.70;;;;;;;;;;5040477;28;20478;-84
2023/09/23 05:59:08;;;;;;;2.80;2.27;;;;;;;;;;5039820;28;20454;-83
2023/09/23 06:01:38;;;;;;;2.50;1.80;;;;;;;;;;5039663;28;20453;-83
2023/09/23 06:04:06;;;;;;;2.87;2.10;;;;;;;;;;5039454;28;20557;-83
2023/09/23 06:06:33;;;;;;;2.30;1.80;;;;;;;;;;5040127;28;20438;-83
2023/09/23 06:09:00;;;;;;;2.60;1.63;;;;;;;;;;5039230;28;20454;-84
2023/09/23 06:11:28;;;;;;;2.80;1.77;;;;;;;;;;5040011;28;20503;-83
2023/09/23 06:13:56;;;;;;;3.00;2.20;;;;;;;;;;5040231;28;20450;-84
2023/09/23 06:16:24;;;;;;;2.70;2.13;;;;;;;;;;5039315;28;20539;-82
2023/09/23 06:18:51;;;;;;;2.50;2.00;;;;;;;;;;5035285;28;20512;-83
2023/09/23 06:21:18;;;;;;;3.23;2.93;;;;;;;;;;5041767;28;20438;-83
2023/09/23 06:23:46;;;;;;;2.70;2.23;;;;;;;;;;5046645;28;20474;-84
2023/09/23 06:26:14;;;;;;;2.63;2.17;;;;;;;;;;5032693;28;21011;-84
2023/09/23 06:28:41;;;;;;;3.73;2.80;;;;;;;;;;5031572;28;20508;-84
2023/09/23 06:31:10;;;;;;;3.50;2.63;;;;;;;;;;5033005;28;20439;-84
2023/09/23 06:33:38;;;;;;;7.20;3.90;;;;;;;;;;5030782;28;20771;-84
2023/09/23 06:36:05;;;;;;;3.47;2.40;;;;;;;;;;5033585;28;20470;-84
2023/09/23 06:38:33;;;;;;;3.57;3.00;;;;;;;;;;5034773;28;20500;-84
2023/09/23 06:41:00;;;;;;;4.10;3.57;;;;;;;;;;5033906;28;20442;-84
2023/09/23 06:43:28;;;;;;;3.60;3.13;;;;;;;;;;5035806;28;20496;-84
2023/09/23 06:45:56;;;;;;;5.00;3.10;;;;;;;;;;5036303;28;20528;-83
2023/09/23 06:48:25;;;;;;;3.60;3.30;;;;;;;;;;5030981;28;20458;-84
2023/09/23 06:51:02;;;;;;;4.10;3.37;;;;;;;;;;5032852;28;20442;-83
2023/09/23 06:53:29;;;;;;;3.23;2.90;;;;;;;;;;5027529;28;20508;-83
2023/09/23 06:55:57;;;;;;;2.90;2.50;;;;;;;;;;5036222;28;20514;-83
2023/09/23 06:58:24;;;;;;;3.33;2.43;;;;;;;;;;5027580;28;20577;-83
2023/09/23 07:00:52;;;;;;;3.27;2.30;;;;;;;;;;5032635;28;20503;-84
2023/09/23 07:03:19;;;;;;;3.57;2.50;;;;;;;;;;5032318;28;20528;-83
2023/09/23 07:05:48;;;;;;;3.50;2.30;;;;;;;;;;5031525;28;20459;-84
2023/09/23 07:08:15;;;;;;;3.50;2.83;;;;;;;;;;5029978;28;22079;-82
2023/09/23 07:10:42;;;;;;;3.03;2.40;;;;;;;;;;5029730;28;20833;-84
2023/09/23 07:13:10;;;;;;;3.97;3.23;;;;;;;;;;5032487;28;20446;-83
2023/09/23 07:15:37;;;;;;;3.60;2.40;;;;;;;;;;5031618;28;20463;-83
2023/09/23 07:18:05;;;;;;;3.80;2.50;;;;;;;;;;5031442;28;20482;-83
2023/09/23 07:20:33;;;;;;;2.70;1.90;;;;;;;;;;5031973;28;20482;-83
2023/09/23 07:23:02;;;;;;;2.80;2.33;;;;;;;;;;5031290;28;20457;-83
2023/09/23 07:25:29;;;;;;;2.97;2.50;;;;;;;;;;5031482;28;20466;-83
2023/09/23 07:27:59;;;;;;;4.20;3.20;;;;;;;;;;5032203;28;20841;-84
2023/09/23 07:30:26;;;;;;;4.00;2.90;;;;;;;;;;5031881;28;21146;-82
2023/09/23 07:32:54;;;;;;;4.10;3.23;;;;;;;;;;5031805;28;20929;-84
2023/09/23 07:35:21;;;;;;;5.00;4.07;;;;;;;;;;5032479;28;20988;-84
2023/09/23 07:37:48;;;;;;;5.03;4.03;;;;;;;;;;5031227;28;20481;-83
2023/09/23 07:40:17;;;;;;;7.40;4.80;;;;;;;;;;5029849;28;20508;-84
2023/09/23 07:42:44;;;;;;;4.10;3.50;;;;;;;;;;5027113;28;20508;-84
2023/09/23 07:45:12;;;;;;;4.20;3.03;;;;;;;;;;5028343;28;20524;-84
2023/09/23 07:47:39;;;;;;;3.40;2.57;;;;;;;;;;5028995;28;20442;-83
2023/09/23 07:50:07;;;;;;;3.20;2.53;;;;;;;;;;5028722;28;20477;-83
2023/09/23 07:52:34;;;;;;;3.10;2.80;;;;;;;;;;5028394;28;20446;-83
2023/09/23 07:55:02;;;;;;;4.00;3.00;;;;;;;;;;5034881;28;20529;-84
2023/09/23 07:57:30;;;;;;;3.40;3.00;;;;;;;;;;5039779;28;20525;-83
2023/09/23 07:59:58;;;;;;;3.70;2.93;;;;;;;;;;5033801;28;20458;-85
2023/09/23 08:02:25;;;;;;;3.90;2.80;;;;;;;;;;5029403;28;20454;-84
2023/09/23 08:04:52;;;;;;;4.40;3.40;;;;;;;;;;5029891;28;20466;-83
2023/09/23 08:07:20;;;;;;;3.77;3.03;;;;;;;;;;5030470;28;20751;-83
2023/09/23 08:09:47;;;;;;;3.63;2.40;;;;;;;;;;5028277;28;20449;-84
2023/09/23 08:12:14;;;;;;;2.83;2.40;;;;;;;;;;5032213;28;20965;-82
2023/09/23 08:14:43;;;;;;;2.53;1.57;;;;;;;;;;5025117;28;20565;-84
2023/09/23 08:17:10;;;;;;;2.10;1.33;;;;;;;;;;5026588;28;20478;-84
2023/09/23 08:19:38;;;;;;;2.33;1.27;;;;;;;;;;5023313;28;20450;-84
2023/09/23 08:22:05;;;;;;;2.20;1.50;;;;;;;;;;5026125;28;20494;-84
2023/09/23 08:24:32;;;;;;;2.43;1.53;;;;;;;;;;5031304;28;20995;-84
2023/09/23 08:27:00;;;;;;;2.37;1.70;;;;;;;;;;5027363;28;20831;-84
2023/09/23 08:29:29;;;;;;;3.03;2.10;;;;;;;;;;5027727;28;20447;-83
2023/09/23 08:31:58;;;;;;;2.40;1.37;;;;;;;;;;5029112;28;20526;-85
2023/09/23 08:34:25;;;;;;;2.00;1.50;;;;;;;;;;5027011;28;20721;-84
2023/09/23 08:36:53;;;;;;;1.90;1.40;;;;;;;;;;5026098;28;20504;-84
2023/09/23 08:39:21;;;;;;;2.47;1.30;;;;;;;;;;5029878;28;20553;-84
2023/09/23 08:41:52;;;;;;;1.80;1.20;;;;;;;;;;5029391;28;20485;-84
2023/09/23 08:44:21;;;;;;;3.03;1.20;;;;;;;;;;5029966;28;20458;-84
2023/09/23 08:46:51;;;;;;;2.43;1.50;;;;;;;;;;5027755;28;20438;-84
2023/09/23 08:49:21;;;;;;;3.00;1.93;;;;;;;;;;5030075;28;21212;-83
2023/09/23 08:51:49;;;;;;;3.80;1.80;;;;;;;;;;5028108;28;20454;-84
2023/09/23 08:54:17;;;;;;;3.13;1.87;;;;;;;;;;5030216;28;21050;-83
2023/09/23 08:56:45;;;;;;;3.33;1.90;;;;;;;;;;5023845;28;20524;-85
2023/09/23 08:59:14;;;;;;;2.30;1.53;;;;;;;;;;5025345;28;20446;-84
2023/09/23 09:01:44;;;;;;;2.63;2.00;;;;;;;;;;5028829;28;20512;-84
2023/09/23 09:04:13;;;;;;;2.57;2.30;;;;;;;;;;5027119;28;20501;-84
2023/09/23 09:06:49;;;;;;;2.90;2.00;;;;;;;;;;5024179;28;20434;-84
2023/09/23 09:09:16;;;;;;;2.70;1.83;;;;;;;;;;5017077;28;20438;-85
2023/09/23 09:11:43;;;;;;;3.10;2.27;;;;;;;;;;5016241;28;20483;-84
2023/09/23 09:14:11;;;;;;;3.13;2.00;;;;;;;;;;5018752;28;20515;-84
2023/09/23 09:16:39;;;;;;;2.60;1.90;;;;;;;;;;5018271;28;20838;-84
2023/09/23 09:19:06;;;;;;;3.03;2.73;;;;;;;;;;5021772;28;20467;-83
2023/09/23 09:21:34;;;;;;;2.67;1.90;;;;;;;;;;5029838;28;20965;-84
2023/09/23 09:24:04;;;;;;;2.30;1.80;;;;;;;;;;5019679;28;21016;-84
2023/09/23 09:26:32;;;;;;;2.83;2.23;;;;;;;;;;5027441;28;20623;-84
2023/09/23 09:28:59;;;;;;;2.23;1.97;;;;;;;;;;5043069;28;20422;-86
2023/09/23 09:31:30;;;;;;;2.77;2.30;;;;;;;;;;5039857;28;20447;-85
2023/09/23 09:34:01;;;;;;;2.67;2.20;;;;;;;;;;5030129;28;20875;-85
2023/09/23 09:36:29;;;;;;;2.80;2.10;;;;;;;;;;5019475;28;20493;-85
2023/09/23 09:38:56;;;;;;;2.87;2.13;;;;;;;;;;5027139;28;20474;-84
2023/09/23 09:41:29;;;;;;;3.10;2.30;;;;;;;;;;5019703;28;20442;-84
2023/09/23 09:44:02;;;;;;;2.93;2.10;;;;;;;;;;5022853;28;20949;-84
2023/09/23 09:46:32;;;;;;;4.90;1.90;;;;;;;;;;5027448;28;20504;-84
2023/09/23 09:49:00;;;;;;;2.63;2.30;;;;;;;;;;5024500;28;20442;-84
2023/09/23 09:51:28;;;;;;;3.07;2.10;;;;;;;;;;5024617;28;20530;-85
2023/09/23 09:53:55;;;;;;;2.47;1.97;;;;;;;;;;5022903;28;20529;-84
2023/09/23 09:56:24;;;;;;;2.90;2.27;;;;;;;;;;5019273;28;20450;-84
2023/09/23 09:58:56;;;;;;;2.60;2.13;;;;;;;;;;5022971;28;20478;-84
2023/09/23 10:01:24;;;;;;;4.10;1.80;;;;;;;;;;5026152;28;20493;-84
2023/09/23 10:03:51;;;;;;;3.60;2.37;;;;;;;;;;5019243;28;20435;-85
2023/09/23 10:06:20;;;;;;;2.80;2.10;;;;;;;;;;5023307;28;20506;-83
2023/09/23 10:08:48;;;;;;;4.33;1.93;;;;;;;;;;5027834;28;20466;-84
2023/09/23 10:11:15;;;;;;;3.43;2.33;;;;;;;;;;5022626;28;20453;-84
2023/09/23 10:13:43;;;;;;;2.53;2.20;;;;;;;;;;5026638;28;20456;-84
2023/09/23 10:16:17;;;;;;;3.00;2.30;;;;;;;;;;5027712;28;20478;-84
2023/09/23 10:30:45;;;;;;;2.80;2.10;;;;;;;;;;5053754;28;20634;-58
2023/09/23 10:33:14;;;;;;;2.40;1.70;;;;;;;;;;5021883;28;20945;-56
2023/09/23 10:35:41;;;;;;;8.13;2.60;;;;;;;;;;5040814;23;20530;-54
2023/09/23 10:38:08;;;;;;;4.57;2.40;;;;;;;;;;5020204;28;21215;-56
2023/09/23 10:40:35;;;;;;;3.30;2.47;;;;;;;;;;5022895;28;20505;-57
2023/09/23 10:43:07;;;;;;;2.80;2.40;;;;;;;;;;5023377;28;20834;-57
2023/09/23 10:45:35;;;;;;;4.13;2.73;;;;;;;;;;5020909;28;20933;-57
2023/09/23 10:48:05;;;;;;;4.53;2.80;;;;;;;;;;5021945;28;20961;-57
2023/09/23 10:50:32;;;;;;;3.50;2.70;;;;;;;;;;5021019;28;20456;-57
2023/09/23 10:52:59;;;;;;;4.10;2.73;;;;;;;;;;5023149;28;20442;-57
2023/09/23 10:55:27;;;;;;;4.47;2.53;;;;;;;;;;5021541;28;21005;-57
2023/09/23 10:57:54;;;;;;;3.27;2.97;;;;;;;;;;5023534;28;20935;-57
2023/09/23 11:00:24;;;;;;;2.77;2.50;;;;;;;;;;5022940;28;20564;-57
2023/09/23 11:02:54;;;;;;;3.70;2.80;;;;;;;;;;5022222;28;20481;-57
2023/09/23 11:05:24;;;;;;;2.50;2.27;;;;;;;;;;5016615;28;20469;-58
2023/09/23 11:07:54;;;;;;;2.70;2.17;;;;;;;;;;5023188;28;20483;-57
2023/09/23 11:10:23;;;;;;;2.63;2.13;;;;;;;;;;5022406;28;20461;-57
2023/09/23 11:12:50;;;;;;;2.80;2.40;;;;;;;;;;5023074;28;20992;-58
2023/09/23 11:15:19;;;;;;;3.60;2.50;;;;;;;;;;5023008;28;20462;-57
2023/09/23 11:17:46;;;;;;;3.00;2.30;;;;;;;;;;5022330;28;20504;-57
2023/09/23 11:20:14;;;;;;;3.80;2.60;;;;;;;;;;5022340;28;20557;-57
2023/09/23 11:22:43;;;;;;;2.93;2.33;;;;;;;;;;5022982;28;20434;-58
2023/09/23 11:25:11;;;;;;;2.70;2.10;;;;;;;;;;5022862;28;20472;-57
2023/09/23 11:27:39;;;;;;;3.60;2.33;;;;;;;;;;5022544;28;20454;-57
2023/09/23 11:30:07;;;;;;;2.93;2.63;;;;;;;;;;5017724;28;20494;-57
2023/09/23 11:32:34;;;;;;;2.60;2.27;;;;;;;;;;5009226;28;20483;-57
2023/09/23 11:35:02;;;;;;;2.83;2.00;;;;;;;;;;5009452;28;20474;-57
2023/09/23 11:37:29;;;;;;;3.33;2.10;;;;;;;;;;5009497;28;20554;-57
2023/09/23 11:39:58;;;;;;;2.73;2.00;;;;;;;;;;5009202;28;20620;-58
2023/09/23 11:42:25;;;;;;;2.30;1.80;;;;;;;;;;5007313;28;20440;-57
2023/09/23 11:44:54;;;;;;;3.57;2.43;;;;;;;;;;5009335;28;20823;-58
2023/09/23 11:47:22;;;;;;;3.50;2.20;;;;;;;;;;5008179;28;20439;-57
2023/09/23 11:49:50;;;;;;;3.23;1.80;;;;;;;;;;5008252;28;20935;-57
2023/09/23 11:52:17;;;;;;;2.33;1.77;;;;;;;;;;5008262;28;20439;-57
2023/09/23 11:54:45;;;;;;;3.60;2.90;;;;;;;;;;5008585;28;21114;-57
2023/09/23 11:57:14;;;;;;;2.53;1.83;;;;;;;;;;5008367;28;20482;-57
2023/09/23 11:59:42;;;;;;;2.40;2.10;;;;;;;;;;5008429;28;21005;-57
2023/09/23 12:02:09;;;;;;;2.43;1.97;;;;;;;;;;5008655;28;21006;-57
2023/09/23 12:04:36;;;;;;;2.30;1.90;;;;;;;;;;5009260;28;20463;-57
2023/09/23 12:07:04;;;;;;;2.20;1.80;;;;;;;;;;5008430;28;20539;-57
2023/09/23 12:09:34;;;;;;;2.07;1.30;;;;;;;;;;5007897;28;20435;-57
2023/09/23 12:12:01;;;;;;;1.80;1.20;;;;;;;;;;5008655;28;20449;-57
2023/09/23 12:14:30;;;;;;;2.90;1.60;;;;;;;;;;5008296;28;20982;-57
2023/09/23 12:16:57;;;;;;;2.00;1.07;;;;;;;;;;5008613;28;20548;-57
2023/09/23 12:19:24;;;;;;;1.67;1.17;;;;;;;;;;5007011;28;20564;-57
2023/09/23 12:21:52;;;;;;;2.00;1.10;;;;;;;;;;5007277;28;20510;-57
2023/09/23 12:24:19;;;;;;;2.00;1.00;;;;;;;;;;5006339;28;20985;-57
2023/09/23 12:26:46;;;;;;;3.37;1.07;;;;;;;;;;5007443;28;20483;-57
2023/09/23 12:29:13;;;;;;;1.50;0.70;;;;;;;;;;5007110;28;20520;-57
2023/09/23 12:31:42;;;;;;;1.53;0.70;;;;;;;;;;5008406;28;20463;-56
2023/09/23 12:34:09;;;;;;;1.50;0.70;;;;;;;;;;5008053;28;20502;-57
2023/09/23 12:36:36;;;;;;;1.47;0.70;;;;;;;;;;5007929;28;20479;-56
2023/09/23 12:39:04;;;;;;;1.60;0.70;;;;;;;;;;5006950;28;20565;-57
2023/09/23 12:41:31;;;;;;;1.37;0.50;;;;;;;;;;5003404;28;20985;-56
2023/09/23 12:43:58;;;;;;;1.73;0.50;;;;;;;;;;5005952;28;20811;-56
2023/09/23 12:46:26;;;;;;;2.07;0.80;;;;;;;;;;5006528;28;20438;-56
2023/09/23 12:48:55;;;;;;;1.97;0.80;;;;;;;;;;5007760;28;20475;-56
2023/09/23 12:51:22;;;;;;;1.40;0.50;;;;;;;;;;5007462;28;20439;-56
2023/09/23 12:53:49;;;;;;;1.47;0.60;;;;;;;;;;5003774;28;20569;-57
2023/09/23 12:56:18;;;;;;;1.40;0.63;;;;;;;;;;5006316;28;20592;-55
2023/09/23 12:58:45;;;;;;;1.67;0.80;;;;;;;;;;5006863;28;20855;-55
2023/09/23 13:01:13;;;;;;;1.70;0.67;;;;;;;;;;5005612;28;20466;-55
2023/09/23 13:03:40;;;;;;;1.70;0.60;;;;;;;;;;5007656;28;20858;-54
2023/09/23 13:06:09;;;;;;;1.70;0.70;;;;;;;;;;5004010;28;20959;-54
2023/09/23 13:08:36;;;;;;;1.70;0.60;;;;;;;;;;5003430;28;20897;-55
2023/09/23 13:11:04;;;;;;;1.60;0.80;;;;;;;;;;5004115;28;20458;-55
2023/09/23 13:13:31;;;;;;;1.40;0.70;;;;;;;;;;5014103;28;20501;-54
2023/09/23 13:15:58;;;;;;;1.50;0.60;;;;;;;;;;5004065;28;20486;-54
2023/09/23 13:18:26;;;;;;;1.33;0.60;;;;;;;;;;5006311;28;20870;-54
2023/09/23 13:20:53;;;;;;;2.27;0.90;;;;;;;;;;5000163;28;20478;-54
2023/09/23 13:23:22;;;;;;;1.70;0.70;;;;;;;;;;5006048;28;20970;-55
2023/09/23 13:25:49;;;;;;;1.40;0.67;;;;;;;;;;5000228;28;20482;-54
2023/09/23 13:28:17;;;;;;;1.60;0.80;;;;;;;;;;5006989;28;20533;-54
2023/09/23 13:30:44;;;;;;;2.23;0.70;;;;;;;;;;5008969;28;20455;-54
2023/09/23 13:33:12;;;;;;;1.37;0.53;;;;;;;;;;5008976;28;20447;-54
2023/09/23 13:35:39;;;;;;;2.53;0.80;;;;;;;;;;5008328;28;20491;-54
2023/09/23 13:38:07;;;;;;;1.50;0.80;;;;;;;;;;5013373;28;20443;-54
2023/09/23 13:40:36;;;;;;;1.60;0.80;;;;;;;;;;5006620;28;20596;-55
2023/09/23 13:43:03;;;;;;;1.60;0.73;;;;;;;;;;5010217;28;20962;-55
2023/09/23 13:45:31;;;;;;;1.60;1.00;;;;;;;;;;5007800;28;20498;-56
2023/09/23 13:47:58;;;;;;;2.00;0.87;;;;;;;;;;5009073;28;20501;-56
2023/09/23 13:50:26;;;;;;;3.87;1.13;;;;;;;;;;5007085;28;20451;-57
2023/09/23 13:52:53;;;;;;;3.57;0.63;;;;;;;;;;5008951;28;20440;-57
2023/09/23 13:55:20;;;;;;;1.53;0.70;;;;;;;;;;5010495;28;20483;-57
2023/09/23 13:57:49;;;;;;;1.87;0.70;;;;;;;;;;5010036;28;20506;-57
2023/09/23 14:00:16;;;;;;;1.40;0.70;;;;;;;;;;5005520;28;20475;-56
2023/09/23 14:02:43;;;;;;;1.40;0.77;;;;;;;;;;5008645;28;20514;-56
2023/09/23 14:05:11;;;;;;;1.60;0.67;;;;;;;;;;5006679;28;20486;-56
2023/09/23 14:07:38;;;;;;;1.40;0.53;;;;;;;;;;5008470;28;20778;-56
2023/09/23 14:10:05;;;;;;;1.60;0.70;;;;;;;;;;5005570;28;20460;-56
2023/09/23 14:12:33;;;;;;;1.40;0.53;;;;;;;;;;5009879;28;20458;-56
2023/09/23 14:15:01;;;;;;;2.70;0.63;;;;;;;;;;5007685;28;20522;-56
2023/09/23 14:17:29;;;;;;;2.00;0.87;;;;;;;;;;5009404;28;20439;-56
2023/09/23 14:19:56;;;;;;;1.40;0.60;;;;;;;;;;5006406;28;20482;-56
2023/09/23 14:22:23;;;;;;;1.63;0.80;;;;;;;;;;5008055;28;20537;-56
2023/09/23 14:24:51;;;;;;;2.33;0.80;;;;;;;;;;5007385;28;20463;-57
2023/09/23 14:27:19;;;;;;;1.67;0.80;;;;;;;;;;5006273;28;20491;-57
2023/09/23 14:29:47;;;;;;;1.60;0.80;;;;;;;;;;5008362;28;20810;-57
2023/09/23 14:32:15;;;;;;;1.77;0.80;;;;;;;;;;5007519;28;20847;-57
2023/09/23 14:34:43;;;;;;;2.70;0.90;;;;;;;;;;5009338;28;20529;-56
2023/09/23 14:37:10;;;;;;;3.00;0.90;;;;;;;;;;5008463;28;20458;-57
2023/09/23 14:39:37;;;;;;;2.03;0.90;;;;;;;;;;5008019;28;20560;-57
2023/09/23 14:42:04;;;;;;;1.80;1.00;;;;;;;;;;5007748;28;20448;-56
2023/09/23 14:44:32;;;;;;;1.90;0.80;;;;;;;;;;5007471;28;20478;-56
2023/09/23 14:46:59;;;;;;;2.13;1.37;;;;;;;;;;5008052;28;20451;-57
2023/09/23 14:49:28;;;;;;;2.57;0.97;;;;;;;;;;5008622;28;20479;-57
2023/09/23 14:51:55;;;;;;;3.07;1.00;;;;;;;;;;5007706;28;20462;-57
2023/09/23 14:54:22;;;;;;;2.23;1.07;;;;;;;;;;5009024;28;20487;-58
2023/09/23 14:56:49;;;;;;;2.03;0.83;;;;;;;;;;5008912;28;20462;-57
2023/09/23 14:59:16;;;;;;;1.73;1.07;;;;;;;;;;5008580;28;21443;-57